Map

Track Data

SID SEASON NUMBER BASIN SUBBASIN NAME ISO_TIME NATURE LAT LON WMO_WIND WMO_PRES WMO_AGENCY TRACK_TYPE DIST2LAND LANDFALL IFLAG USA_AGENCY USA_ATCF_ID USA_LAT USA_LON USA_RECORD USA_STATUS USA_WIND USA_PRES USA_SSHS USA_R34_NE USA_R34_SE USA_R34_SW USA_R34_NW USA_R50_NE USA_R50_SE USA_R50_SW USA_R50_NW USA_R64_NE USA_R64_SE USA_R64_SW USA_R64_NW USA_POCI USA_ROCI USA_RMW USA_EYE TOKYO_LAT TOKYO_LON TOKYO_GRADE TOKYO_WIND TOKYO_PRES TOKYO_R50_DIR TOKYO_R50_LONG TOKYO_R50_SHORT TOKYO_R30_DIR TOKYO_R30_LONG TOKYO_R30_SHORT TOKYO_LAND CMA_LAT CMA_LON CMA_CAT CMA_WIND CMA_PRES HKO_LAT HKO_LON HKO_CAT HKO_WIND HKO_PRES NEWDELHI_LAT NEWDELHI_LON NEWDELHI_GRADE NEWDELHI_WIND NEWDELHI_PRES NEWDELHI_CI NEWDELHI_DP NEWDELHI_POCI REUNION_LAT REUNION_LON REUNION_TYPE REUNION_WIND REUNION_PRES REUNION_TNUM REUNION_CI REUNION_RMW REUNION_R34_NE REUNION_R34_SE REUNION_R34_SW REUNION_R34_NW REUNION_R50_NE REUNION_R50_SE REUNION_R50_SW REUNION_R50_NW REUNION_R64_NE REUNION_R64_SE REUNION_R64_SW REUNION_R64_NW BOM_LAT BOM_LON BOM_TYPE BOM_WIND BOM_PRES BOM_TNUM BOM_CI BOM_RMW BOM_R34_NE BOM_R34_SE BOM_R34_SW BOM_R34_NW BOM_R50_NE BOM_R50_SE BOM_R50_SW BOM_R50_NW BOM_R64_NE BOM_R64_SE BOM_R64_SW BOM_R64_NW BOM_ROCI BOM_POCI BOM_EYE BOM_POS_METHOD BOM_PRES_METHOD NADI_LAT NADI_LON NADI_CAT NADI_WIND NADI_PRES WELLINGTON_LAT WELLINGTON_LON WELLINGTON_WIND WELLINGTON_PRES DS824_LAT DS824_LON DS824_STAGE DS824_WIND DS824_PRES TD9636_LAT TD9636_LON TD9636_STAGE TD9636_WIND TD9636_PRES TD9635_LAT TD9635_LON TD9635_WIND TD9635_PRES TD9635_ROCI NEUMANN_LAT NEUMANN_LON NEUMANN_CLASS NEUMANN_WIND NEUMANN_PRES MLC_LAT MLC_LON MLC_CLASS MLC_WIND MLC_PRES USA_GUST BOM_GUST BOM_GUST_PER REUNION_GUST REUNION_GUST_PER USA_SEAHGT USA_SEARAD_NE USA_SEARAD_SE USA_SEARAD_SW USA_SEARAD_NW STORM_SPEED STORM_DIR
1960253N09153 1960 68 WP MM IRMA 1960-09-09 00:00:00 TS 9.30000 152.500 main 1356 1352 __O___________ -1 9.30000 152.500 0 1006 9 281
1960253N09153 1960 68 WP MM IRMA 1960-09-09 03:00:00 TS 9.38511 152.037 main 1361 1359 __P___________ -1 9.38511 152.037 0 1006 10 281
1960253N09153 1960 68 WP MM IRMA 1960-09-09 06:00:00 TS 9.50000 151.500 main 1368 1367 __O___________ -1 9.50000 151.500 0 1006 12 283
1960253N09153 1960 68 WP MM IRMA 1960-09-09 09:00:00 TS 9.65728 150.825 main 1374 1363 __P___________ -1 9.65728 150.825 0 1006 15 281
1960253N09153 1960 68 WP MM IRMA 1960-09-09 12:00:00 TS 9.80000 150.000 main 1364 1346 __O___________ -1 9.80000 150.000 0 1006 18 276
1960253N09153 1960 68 WP MM IRMA 1960-09-09 15:00:00 TS 9.83480 149.059 main 1346 1341 __P___________ -1 9.83480 149.059 0 1006 20 273
1960253N09153 1960 68 WP MM IRMA 1960-09-09 18:00:00 TS 9.90000 148.000 main 1346 1345 __O___________ -1 9.90000 148.000 0 1006 22 277
1960253N09153 1960 68 WP MM IRMA 1960-09-09 21:00:00 TS 10.1129 146.805 main 1367 1367 __P___________ -1 10.1129 146.805 0 1006 23 282
1960253N09153 1960 68 WP MM IRMA 1960-09-10 00:00:00 TS 10.4000 145.700 main 1404 1404 __O___________ -1 10.4000 145.700 0 1006 20 287
1960253N09153 1960 68 WP MM IRMA 1960-09-10 03:00:00 TS 10.6920 144.895 main 1446 1446 __P___________ -1 10.6920 144.895 0 1006 15 294
1960253N09153 1960 68 WP MM IRMA 1960-09-10 06:00:00 TS 11.0000 144.300 main 1489 1489 __O___________ -1 11.0000 144.300 0 1006 13 299
1960253N09153 1960 68 WP MM IRMA 1960-09-10 09:00:00 TS 11.3073 143.782 main 1533 1533 __P___________ -1 11.3073 143.782 0 1006 11 304
1960253N09153 1960 68 WP MM IRMA 1960-09-10 12:00:00 TS 11.6000 143.400 main 1575 1575 __O___________ -1 11.6000 143.400 0 1006 9 311
1960253N09153 1960 68 WP MM IRMA 1960-09-10 15:00:00 TS 11.8649 143.127 main 1606 1606 __P___________ -1 11.8649 143.127 0 1006 7 316
1960253N09153 1960 68 WP MM IRMA 1960-09-10 18:00:00 TS 12.1000 142.900 main 1620 1617 __O___________ -1 12.1000 142.900 0 1006 7 310
1960253N09153 1960 68 WP MM IRMA 1960-09-10 21:00:00 TS 12.3000 142.600 main 1631 1628 __P___________ -1 12.3000 142.600 0 1006 7 304
1960253N09153 1960 68 WP MM IRMA 1960-09-11 00:00:00 TS 12.5000 142.300 main 1643 1640 __O___________ -1 12.5000 142.300 0 1006 7 309
1960253N09153 1960 68 WP MM IRMA 1960-09-11 03:00:00 TS 12.7349 142.057 main 1659 1655 __P___________ -1 12.7349 142.057 0 1006 7 316
1960253N09153 1960 68 WP MM IRMA 1960-09-11 06:00:00 TS 13.0000 141.800 main 1677 1677 __O___________ -1 13.0000 141.800 0 1006 8 315
1960253N09153 1960 68 WP MM IRMA 1960-09-11 09:00:00 TS 13.3225 141.465 main 1696 1546 __P___________ -1 13.3225 141.465 0 1006 19 252
1960253N09153 1960 68 WP MM IRMA 1960-09-11 12:00:00 TS 12.4000 139.950 main 1546 1458 O_O______OOO__ jtwc_wp WP201960 11.2000 138.800 25 -1 13.6000 141.100 0 1006 11.2000 138.800 TC 25 11.2000 138.800 1 25 11.2000 138.800 25 1001 180 25 242
1960253N09153 1960 68 WP MM IRMA 1960-09-11 15:00:00 TS 12.1410 139.183 main 1458 1394 P_P______PPP__ WP201960 11.3251 138.378 25 -1 13.7373 140.772 0 1005 11.3251 138.378 TC 25 11.3958 138.421 1 27 11.3251 138.378 25 1000 210 13 257
1960253N09153 1960 68 WP MM IRMA 1960-09-11 18:00:00 TS 12.0925 138.612 main 1394 1354 O_O______OPO__ jtwc_wp WP201960 11.5000 138.000 25 -1 13.8000 140.400 1 29 1004 11.5000 138.000 TC 25 11.5931 138.063 1 30 11.5000 138.000 25 1000 240 10 272
1960253N09153 1960 68 WP MM IRMA 1960-09-11 21:00:00 TS 12.1832 138.156 main 1354 1325 P_P______PPP__ WP201960 11.7500 137.705 30 -1 13.8726 139.915 1 29 1004 11.7500 137.705 TC 30 11.7938 137.749 1 32 11.7500 137.705 30 999 270 8 292
1960253N09153 1960 68 WP MM IRMA 1960-09-12 00:00:00 TS 12.3800 137.880 main 1327 1307 O_O______OOO__ jtwc_wp WP201960 12.0000 137.500 35 0 13.9000 139.400 1 29 1004 12.0000 137.500 TC 35 12.0000 137.500 2 35 12.0000 137.500 35 999 300 6 304
1960253N09153 1960 68 WP MM IRMA 1960-09-12 03:00:00 TS 12.5012 137.681 main 1307 1286 P_P______PPP__ WP201960 12.1424 137.385 35 0 13.8650 138.920 1 29 1003 12.1424 137.385 TC 35 12.2135 137.329 2 35 12.1424 137.385 35 998 300 4 305
1960253N09153 1960 68 WP MM IRMA 1960-09-12 06:00:00 TS 12.6269 137.522 main 1286 1277 O_O______OPO__ jtwc_wp WP201960 12.3000 137.300 35 0 13.8000 138.500 1 29 1002 12.3000 137.300 TC 35 12.4346 137.212 2 35 12.3000 137.300 35 998 300 5 316
1960253N09153 1960 68 WP MM IRMA 1960-09-12 09:00:00 TS 12.8367 137.353 main 1278 1260 P_P______PPP__ WP201960 12.5925 137.158 35 0 13.7424 138.178 1 29 1002 12.5925 137.158 TC 35 12.6635 137.114 2 35 12.5925 137.158 35 997 300 5 322
1960253N09153 1960 68 WP MM IRMA 1960-09-12 12:00:00 TS 13.0600 137.180 main 1262 1243 O_O______OOO__ jtwc_wp WP201960 12.9000 137.000 35 0 13.7000 137.900 1 29 1002 12.9000 137.000 TC 35 12.9000 137.000 2 35 12.9000 137.000 35 996 300 5 319
1960253N09153 1960 68 WP MM IRMA 1960-09-12 15:00:00 TS 13.2278 137.003 main 1243 1225 P_P______PPP__ WP201960 13.1000 136.865 35 0 13.6925 137.593 1 29 1002 13.1000 136.865 TC 35 13.1469 136.826 2 36 13.1000 136.865 35 995 300 5 313
1960253N09153 1960 68 WP MM IRMA 1960-09-12 18:00:00 TS 13.4000 136.806 main 1225 1209 O_O______OPO__ jtwc_wp WP201960 13.3000 136.700 35 0 13.7000 137.300 1 29 1002 13.3000 136.700 TC 35 13.4000 136.630 2 37 13.3000 136.700 35 994 300 6 314
1960253N09153 1960 68 WP MM IRMA 1960-09-12 21:00:00 TS 13.6336 136.571 main 1209 1183 P_P______PPP__ WP201960 13.6075 136.458 37 0 13.6924 137.065 1 29 1002 13.6075 136.458 TC 37 13.6531 136.419 2 38 13.6075 136.458 37 993 270 7 314
1960253N09153 1960 68 WP MM IRMA 1960-09-13 00:00:00 TS 13.8600 136.320 main 1185 1166 O_O______OOO__ jtwc_wp WP201960 13.9000 136.200 40 0 13.7000 136.800 1 29 1002 13.9000 136.200 TC 40 13.9000 136.200 2 40 13.9000 136.200 40 992 240 6 308
1960253N09153 1960 68 WP MM IRMA 1960-09-13 03:00:00 TS 14.0080 136.079 main 1166 1135 P_P______PPP__ WP201960 14.0499 136.000 40 0 13.7501 136.408 1 29 1002 14.0499 136.000 TC 40 14.1402 135.986 2 38 14.0499 136.000 40 991 240 6 302
1960253N09153 1960 68 WP MM IRMA 1960-09-13 06:00:00 TS 14.1545 135.833 main 1137 1118 O_O______OPO__ jtwc_wp WP201960 14.2000 135.800 40 0 13.8000 136.000 1 29 1002 14.2000 135.800 TC 40 14.3724 135.765 2 37 14.2000 135.800 40 990 240 6 307
1960253N09153 1960 68 WP MM IRMA 1960-09-13 09:00:00 TS 14.3756 135.583 main 1120 1094 P_P______PPP__ WP201960 14.4925 135.558 37 0 13.8073 135.707 1 29 1002 14.4925 135.558 TC 37 14.5934 135.536 2 36 14.4925 135.558 37 990 270 7 312
1960253N09153 1960 68 WP MM IRMA 1960-09-13 12:00:00 TS 14.6000 135.320 main 1094 1075 O_O______OOO__ jtwc_wp WP201960 14.8000 135.300 35 0 13.8000 135.400 1 29 1002 14.8000 135.300 TC 35 14.8000 135.300 2 35 14.8000 135.300 35 991 300 7 307
1960253N09153 1960 68 WP MM IRMA 1960-09-13 15:00:00 TS 14.7682 135.040 main 1068 1050 P_P______PPP__ WP201960 15.0225 135.050 35 0 13.7925 134.972 1 29 1002 15.0225 135.050 TC 35 14.9810 135.077 2 28 15.0225 135.050 35 991 300 6 299
1960253N09153 1960 68 WP MM IRMA 1960-09-13 18:00:00 TS 14.9099 134.749 main 1039 1022 O_O______OPO__ jtwc_wp WP201960 15.2000 134.800 35 0 13.8000 134.500 1 29 1002 15.2000 134.800 TC 35 15.1496 134.844 2 22 15.2000 134.800 35 992 300 6 296
1960253N09153 1960 68 WP MM IRMA 1960-09-13 21:00:00 TS 15.0361 134.471 main 1022 994 P_P______PPP__ WP201960 15.3424 134.572 22 -1 13.8349 134.050 1 29 1002 15.3424 134.572 TC 22 15.3185 134.590 2 16 15.3424 134.572 22 993 300 6 295
1960253N09153 1960 68 WP MM IRMA 1960-09-14 00:00:00 TS 15.1800 134.160 main 998 965 O_O______OOO__ jtwc_wp WP201960 15.5000 134.300 10 -1 13.9000 133.600 1 29 1002 15.5000 134.300 TC 10 15.5000 134.300 1 10 15.5000 134.300 10 994 300 8 298
1960253N09153 1960 68 WP MM IRMA 1960-09-14 03:00:00 TS 15.3911 133.776 main 965 934 P_P______PPP__ WP201960 15.7426 133.915 10 -1 13.9849 133.150 1 29 1002 15.7426 133.915 TC 10 15.7429 133.986 1 10 15.7426 133.915 10 995 300 9 300
1960253N09153 1960 68 WP MM IRMA 1960-09-14 06:00:00 TS 15.6189 133.367 main 934 904 O_O______OPO__ jtwc_wp WP201960 16.0000 133.500 10 -1 14.1000 132.700 1 29 1002 16.0000 133.500 TC 10 15.9945 133.633 1 10 16.0000 133.500 10 996 300 9 301
1960253N09153 1960 68 WP MM IRMA 1960-09-14 09:00:00 TS 15.8326 133.010 main 904 876 P_P______PPP__ WP201960 16.2372 133.180 10 -1 14.2273 132.272 1 29 1001 16.2372 133.180 TC 10 16.2240 133.239 1 10 16.2372 133.180 10 997 300 8 297
1960253N09153 1960 68 WP MM IRMA 1960-09-14 12:00:00 TS 16.0000 132.600 main 876 835 O_O______OOO__ jtwc_wp WP201960 16.4000 132.800 10 -1 14.4000 131.800 1 29 1000 16.4000 132.800 TC 10 16.4000 132.800 1 10 16.4000 132.800 10 999 300 10 284
1960253N09153 1960 68 WP MM IRMA 1960-09-14 15:00:00 TS 16.0742 132.038 main 825 780 P_P______PPP__ WP201960 16.4228 132.215 10 -1 14.6200 131.222 1 29 1000 16.4228 132.215 TC 10 16.4825 132.322 1 11 16.4228 132.215 10 1000 300 11 276
1960253N09153 1960 68 WP MM IRMA 1960-09-14 18:00:00 TS 16.1220 131.440 main 771 743 O_O______OPO__ jtwc_wp WP201960 16.4000 131.600 10 -1 14.9000 130.600 1 29 1000 16.4000 131.600 TC 10 16.5100 131.802 1 12 16.4000 131.600 10 1001 300 11 278
1960253N09153 1960 68 WP MM IRMA 1960-09-14 21:00:00 TS 16.2153 130.923 main 734 707 P_P______PPP__ WP201960 16.4497 131.128 12 -1 15.2200 129.977 1 33 1000 16.4497 131.128 TC 12 16.5074 131.256 1 13 16.4497 131.128 12 1001 330 10 282
1960253N09153 1960 68 WP MM IRMA 1960-09-15 00:00:00 TS 16.3200 130.440 main 698 663 O_O______OOO__ jtwc_wp WP201960 16.5000 130.700 15 -1 15.6000 129.400 2 38 1000 16.5000 130.700 TC 15 16.5000 130.700 1 15 16.5000 130.700 15 1002 360 9 282
1960253N09153 1960 68 WP MM IRMA 1960-09-15 03:00:00 TS 16.4041 129.988 main 663 619 P_P______PPP__ WP201960 16.4997 130.280 15 -1 16.0497 128.935 2 38 1000 16.4997 130.280 TC 15 16.4717 130.164 1 16 16.4997 130.280 15 1002 360 9 281
1960253N09153 1960 68 WP MM IRMA 1960-09-15 06:00:00 TS 16.4904 129.504 main 619 578 O_O______OPO__ jtwc_wp WP201960 16.5000 129.800 15 -1 16.5000 128.500 2 38 1000 16.5000 129.800 TC 15 16.4518 129.621 1 17 16.5000 129.800 15 1003 360 10 280
1960253N09153 1960 68 WP MM IRMA 1960-09-15 09:00:00 TS 16.5781 128.930 main 569 522 P_P______PPP__ WP201960 16.5199 129.195 17 -1 16.8500 128.000 2 38 1000 16.5199 129.195 TC 17 16.4810 129.067 1 18 16.5199 129.195 17 1002 360 12 281
1960253N09153 1960 68 WP MM IRMA 1960-09-15 12:00:00 TS 16.7200 128.300 main 522 487 O_O______OOO__ jtwc_wp WP201960 16.6000 128.500 20 -1 17.2000 127.500 2 38 1000 16.6000 128.500 TC 20 16.6000 128.500 1 20 16.6000 128.500 20 1002 360 13 286
1960253N09153 1960 68 WP MM IRMA 1960-09-15 15:00:00 TS 16.9464 127.621 main 480 460 P_P______PPP__ WP201960 16.7328 127.720 20 -1 17.6649 127.035 2 38 1000 16.7328 127.720 TC 20 16.8685 127.911 1 20 16.7328 127.720 20 1002 360 14 293
1960253N09153 1960 68 WP MM IRMA 1960-09-15 18:00:00 TS 17.2649 126.982 main 469 430 O_O______OPO__ jtwc_wp WP201960 17.0000 127.000 20 -1 18.1000 126.600 2 38 1000 17.0000 127.000 TC 20 17.2247 127.309 1 20 17.0000 127.000 20 1002 360 13 305
1960253N09153 1960 68 WP MM IRMA 1960-09-15 21:00:00 TS 17.6873 126.495 main 431 397 P_P______PPP__ WP201960 17.4769 126.527 20 -1 18.3874 126.192 2 33 1000 17.4769 126.527 TC 20 17.6185 126.702 1 20 17.4769 126.527 20 1001 330 12 314
1960253N09153 1960 68 WP MM IRMA 1960-09-16 00:00:00 TS 18.1200 126.040 main 391 337 O_O______OOO__ jtwc_wp WP201960 18.0000 126.100 20 -1 18.6000 125.800 1 29 1000 18.0000 126.100 TC 20 18.0000 126.100 1 20 18.0000 126.100 20 1001 300 12 309
1960253N09153 1960 68 WP MM IRMA 1960-09-16 03:00:00 TS 18.4618 125.497 main 337 286 P_P______PPP__ WP201960 18.3951 125.515 20 -1 18.7999 125.400 1 29 1000 18.3951 125.515 TC 20 18.3238 125.542 1 20 18.3951 125.515 20 1000 300 12 301
1960253N09153 1960 68 WP MM IRMA 1960-09-16 06:00:00 TS 18.7446 124.937 main 276 238 O_O______OPO__ jtwc_wp WP201960 18.7000 124.900 20 -1 19.0000 125.000 1 29 1000 18.7000 124.900 TC 20 18.6232 124.987 1 20 18.7000 124.900 20 1000 300 11 297
1960253N09153 1960 68 WP MM IRMA 1960-09-16 09:00:00 TS 18.9774 124.424 main 231 190 P_P______PPP__ WP201960 18.9219 124.379 20 -1 19.2351 124.570 1 29 1000 18.9219 124.379 TC 20 18.8861 124.414 1 20 18.9219 124.379 20 1000 330 11 294
1960253N09153 1960 68 WP MM IRMA 1960-09-16 12:00:00 TS 19.1800 123.880 main 190 146 O_O______OOO__ jtwc_wp WP201960 19.1000 123.800 20 -1 19.5000 124.200 1 29 1000 19.1000 123.800 TC 20 19.1000 123.800 1 20 19.1000 123.800 20 1000 360 12 290
1960253N09153 1960 68 WP MM IRMA 1960-09-16 15:00:00 TS 19.3959 123.183 main 146 124 P_P______PPP__ WP201960 19.3304 123.015 20 -1 19.7924 123.960 1 29 1000 19.3304 123.015 TC 20 19.3119 123.090 1 20 19.3304 123.015 20 1000 360 14 285
1960253N09153 1960 68 WP MM IRMA 1960-09-16 18:00:00 TS 19.5591 122.410 main 134 127 O_O______OPO__ jtwc_wp WP201960 19.5000 122.200 20 -1 20.1000 123.800 1 29 1000 19.5000 122.200 TC 20 19.4659 122.344 1 20 19.5000 122.200 20 1000 360 15 279
1960253N09153 1960 68 WP MM IRMA 1960-09-16 21:00:00 TS 19.6152 121.658 main 127 100 P________PPP__ WP201960 19.5671 121.520 20 -1 1 19.5671 121.520 TC 20 19.5369 121.600 1 20 19.5671 121.520 20 999 330 14 268
1960253N09153 1960 68 WP MM IRMA 1960-09-17 00:00:00 TS 19.5000 120.900 main 100 79 O________OOO__ jtwc_wp WP201960 19.5000 120.900 20 -1 19.5000 120.900 TC 20 19.5000 120.900 1 20 19.5000 120.900 20 999 300 14 251
1960253N09153 1960 68 WP MM IRMA 1960-09-17 03:00:00 TS 19.1648 120.230 main 92 84 P________PPP__ WP201960 19.2949 120.277 20 -1 19.2949 120.277 TC 20 19.3350 120.319 1 20 19.2949 120.277 20 999 300 14 239
1960253N09153 1960 68 WP MM IRMA 1960-09-17 06:00:00 TS 18.7928 119.641 main 114 110 O________OPO__ jtwc_wp WP201960 19.0000 119.700 20 -1 19.0000 119.700 TC 20 19.0676 119.784 1 20 19.0000 119.700 20 999 300 12 236
1960253N09153 1960 68 WP MM IRMA 1960-09-17 09:00:00 TS 18.4690 119.141 main 154 151 P________PPP__ WP201960 18.7292 119.238 20 -1 18.7292 119.238 TC 20 18.7414 119.257 1 20 18.7292 119.238 20 999 300 12 237
1960253N09153 1960 68 WP MM IRMA 1960-09-17 12:00:00 TS 18.1400 118.580 main 188 188 O________OOO__ jtwc_wp WP201960 18.4000 118.700 20 -1 18.4000 118.700 TC 20 18.4000 118.700 1 20 18.4000 118.700 20 999 300 14 241
1960253N09153 1960 68 WP MM IRMA 1960-09-17 15:00:00 TS 17.7902 117.831 main 265 265 P________PPP__ WP201960 17.9283 117.849 20 -1 17.9283 117.849 TC 20 18.0585 118.052 1 20 17.9283 117.849 20 999 300 16 245
1960253N09153 1960 68 WP MM IRMA 1960-09-17 18:00:00 TS 17.4635 117.074 main 317 317 O________OPO__ jtwc_wp WP201960 17.5000 117.000 20 -1 17.5000 117.000 TC 20 17.7176 117.371 1 20 17.5000 117.000 20 999 300 14 248
1960253N09153 1960 68 WP MM IRMA 1960-09-17 21:00:00 TS 17.2771 116.512 main 368 368 P________PPP__ WP201960 17.2893 116.463 20 -1 17.2893 116.463 TC 20 17.4178 116.680 1 20 17.2893 116.463 20 999 330 11 255
1960253N09153 1960 68 WP MM IRMA 1960-09-18 00:00:00 TS 17.1800 116.000 main 416 416 O________OOO__ jtwc_wp WP201960 17.2000 116.000 20 -1 17.2000 116.000 TC 20 17.2000 116.000 1 20 17.2000 116.000 20 999 360 11 261
1960253N09153 1960 68 WP MM IRMA 1960-09-18 03:00:00 TS 17.1066 115.422 main 474 474 P________PPP__ WP201960 17.1199 115.422 20 -1 17.1199 115.422 TC 20 17.0811 115.329 1 20 17.1199 115.422 20 999 360 11 265
1960253N09153 1960 68 WP MM IRMA 1960-09-18 06:00:00 TS 17.0900 114.815 main 488 435 O________OPO__ jtwc_wp WP201960 17.1000 114.800 20 -1 17.1000 114.800 TC 20 17.0500 114.676 1 20 17.1000 114.800 20 1000 360 12 271
1960253N09153 1960 68 WP MM IRMA 1960-09-18 09:00:00 TS 17.1194 114.167 main 435 373 P________PPP__ WP201960 17.1202 114.120 20 -1 17.1202 114.120 TC 20 17.0938 114.060 1 20 17.1202 114.120 20 1000 360 12 275
1960253N09153 1960 68 WP MM IRMA 1960-09-18 12:00:00 TS 17.2000 113.560 main 373 322 O________OOO__ jtwc_wp WP201960 17.2000 113.500 20 -1 17.2000 113.500 TC 20 17.2000 113.500 1 20 17.2000 113.500 20 1001 360 11 281
1960253N09153 1960 68 WP MM IRMA 1960-09-18 15:00:00 TS 17.3160 113.079 main 322 274 P________PPP__ WP201960 17.3196 113.070 20 -1 17.3196 113.070 TC 20 17.3562 113.009 1 20 17.3196 113.070 20 1001 330 9 287
1960253N09153 1960 68 WP MM IRMA 1960-09-18 18:00:00 TS 17.4658 112.659 main 274 224 O________OPO__ jtwc_wp WP201960 17.5000 112.700 20 -1 17.5000 112.700 TC 20 17.5501 112.575 1 20 17.5000 112.700 20 1002 300 9 292
1960253N09153 1960 68 WP MM IRMA 1960-09-18 21:00:00 TS 17.6459 112.222 main 224 177 P________PPP__ WP201960 17.7499 112.265 20 -1 17.7499 112.265 TC 20 17.7689 112.179 1 20 17.7499 112.265 20 1003 270 9 290
1960253N09153 1960 68 WP MM IRMA 1960-09-19 00:00:00 TS 17.7714 111.771 main 177 145 O________OOO__ jtwc_wp WP201960 18.0000 111.800 20 -1 18.0000 111.800 TC 20 18.0000 111.800 1 20 18.0000 111.800 20 1004 240 9 276
1960253N09153 1960 68 WP MM IRMA 1960-09-19 03:00:00 TS 17.7421 111.327 main 146 128 P________P_P__ WP201960 18.1753 111.308 20 -1 18.1753 111.308 TC 20 1 18.1753 111.308 20 1005 270 8 255
1960253N09153 1960 68 WP MM IRMA 1960-09-19 06:00:00 TS 17.5571 110.914 main 130 130 O________O_O__ jtwc_wp WP201960 18.3000 110.800 20 -1 18.3000 110.800 TC 20 1 18.3000 110.800 20 1006 300 11 225
1960253N09153 1960 68 WP MM IRMA 1960-09-19 09:00:00 TS 16.9700 110.522 main 158 137 ______________ WP201960 -1 TC 1 10 238
1960253N09153 1960 68 WP MM IRMA 1960-09-19 12:00:00 TS 17.0000 110.000 main 137 123 ______________ -1 10 278
1960253N09153 1960 68 WP MM IRMA 1960-09-19 15:00:00 TS 17.0999 109.500 main 123 113 ______________ -1 10 282
1960253N09153 1960 68 WP MM IRMA 1960-09-19 18:00:00 TS 17.2000 109.000 main 123 116 ______________ -1 10 277
1960253N09153 1960 68 WP MM IRMA 1960-09-19 21:00:00 TS 17.2252 108.500 main 116 79 ______________ -1 10 270
1960253N09153 1960 68 WP MM IRMA 1960-09-20 00:00:00 TS 17.2000 108.000 main 79 ______________ -1 10 267

Digital Typhoon Data and Search

About IBTrACS Database

This database is a web-friendly format of International Best Track Archive for Climate Stewardship (IBTrACS), a global best track data archive curated by NOAA dating back to 1842.

Updated: 2021-12-03